Terminal Aerodrome Forecast
Issued by NWS Grand Forks, ND

Home | Current Version | Previous Version | Text Only | Print | Product List | Glossary On
Versions: 1 2 3 4 5 6 7 8 9 10 11 12 13 14 15 16
513
FTUS43 KFGF 281739
TAFGFK
TAF
KGFK 281739Z 2818/2918 35011KT 4SM BR BKN050
     FM282000 34012KT 4SM BR BKN015
     FM282100 34012KT P6SM BKN015
     FM282300 34012KT P6SM BKN090
     FM290600 31005KT P6SM FEW110=

USA.gov is the U.S. government's official web portal to all federal, state and local government web resources and services.